sensor_id;sensor_type;location;lat;lon;timestamp;temperature;humidity
17565;DHT22;62994;52.126;5.596;2023-10-13T00:01:52;18.20;99.90
17565;DHT22;62994;52.126;5.596;2023-10-13T00:04:22;18.20;99.90
17565;DHT22;62994;52.126;5.596;2023-10-13T00:06:57;18.10;99.90
17565;DHT22;62994;52.126;5.596;2023-10-13T00:09:25;18.10;99.90
17565;DHT22;62994;52.126;5.596;2023-10-13T00:11:58;18.10;99.90
17565;DHT22;62994;52.126;5.596;2023-10-13T00:14:29;18.10;99.90
17565;DHT22;62994;52.126;5.596;2023-10-13T00:17:13;18.10;99.90
17565;DHT22;62994;52.126;5.596;2023-10-13T00:19:48;18.10;99.90
17565;DHT22;62994;52.126;5.596;2023-10-13T00:22:20;18.20;99.90
17565;DHT22;62994;52.126;5.596;2023-10-13T00:24:52;18.20;99.90
17565;DHT22;62994;52.126;5.596;2023-10-13T00:27:30;18.20;99.90
17565;DHT22;62994;52.126;5.596;2023-10-13T00:30:06;18.20;99.90
17565;DHT22;62994;52.126;5.596;2023-10-13T00:32:48;18.30;99.90
17565;DHT22;62994;52.126;5.596;2023-10-13T00:35:32;18.20;99.90
17565;DHT22;62994;52.126;5.596;2023-10-13T00:38:08;18.20;99.90
17565;DHT22;62994;52.126;5.596;2023-10-13T00:40:45;18.20;99.90
17565;DHT22;62994;52.126;5.596;2023-10-13T00:43:21;18.20;99.90
17565;DHT22;62994;52.126;5.596;2023-10-13T00:46:11;18.20;99.90
17565;DHT22;62994;52.126;5.596;2023-10-13T00:48:43;18.20;99.90
17565;DHT22;62994;52.126;5.596;2023-10-13T00:51:23;18.20;99.90
17565;DHT22;62994;52.126;5.596;2023-10-13T00:54:05;18.20;99.90
17565;DHT22;62994;52.126;5.596;2023-10-13T00:56:39;18.20;99.90
17565;DHT22;62994;52.126;5.596;2023-10-13T00:59:13;18.20;99.90
17565;DHT22;62994;52.126;5.596;2023-10-13T01:01:41;18.20;99.90
17565;DHT22;62994;52.126;5.596;2023-10-13T01:04:24;18.20;99.90
17565;DHT22;62994;52.126;5.596;2023-10-13T01:06:56;18.20;99.90
17565;DHT22;62994;52.126;5.596;2023-10-13T01:09:25;18.20;99.90
17565;DHT22;62994;52.126;5.596;2023-10-13T01:11:57;18.20;99.90
17565;DHT22;62994;52.126;5.596;2023-10-13T01:14:29;18.10;99.90
17565;DHT22;62994;52.126;5.596;2023-10-13T01:16:58;18.20;99.90
17565;DHT22;62994;52.126;5.596;2023-10-13T01:19:37;18.20;99.90
17565;DHT22;62994;52.126;5.596;2023-10-13T01:22:08;18.20;99.90
17565;DHT22;62994;52.126;5.596;2023-10-13T01:24:41;18.20;99.90
17565;DHT22;62994;52.126;5.596;2023-10-13T01:27:16;18.20;99.90
17565;DHT22;62994;52.126;5.596;2023-10-13T01:29:47;18.20;99.90
17565;DHT22;62994;52.126;5.596;2023-10-13T01:32:18;18.30;99.90
17565;DHT22;62994;52.126;5.596;2023-10-13T01:34:47;18.30;99.90
17565;DHT22;62994;52.126;5.596;2023-10-13T01:37:15;18.30;99.90
17565;DHT22;62994;52.126;5.596;2023-10-13T01:39:46;18.20;99.90
17565;DHT22;62994;52.126;5.596;2023-10-13T01:42:20;18.20;99.90
17565;DHT22;62994;52.126;5.596;2023-10-13T01:44:52;18.30;99.90
17565;DHT22;62994;52.126;5.596;2023-10-13T01:47:31;18.20;99.90
17565;DHT22;62994;52.126;5.596;2023-10-13T01:49:58;18.10;99.90
17565;DHT22;62994;52.126;5.596;2023-10-13T01:52:32;18.20;99.90
17565;DHT22;62994;52.126;5.596;2023-10-13T01:55:07;18.10;99.90
17565;DHT22;62994;52.126;5.596;2023-10-13T01:57:37;18.20;99.90
17565;DHT22;62994;52.126;5.596;2023-10-13T02:00:13;18.20;99.90
17565;DHT22;62994;52.126;5.596;2023-10-13T02:02:44;18.10;99.90
17565;DHT22;62994;52.126;5.596;2023-10-13T02:05:16;18.10;99.90
17565;DHT22;62994;52.126;5.596;2023-10-13T02:07:43;18.10;99.90
17565;DHT22;62994;52.126;5.596;2023-10-13T02:10:23;18.10;99.90
17565;DHT22;62994;52.126;5.596;2023-10-13T02:12:53;18.10;99.90
17565;DHT22;62994;52.126;5.596;2023-10-13T02:15:23;18.10;99.90
17565;DHT22;62994;52.126;5.596;2023-10-13T02:17:55;18.10;99.90
17565;DHT22;62994;52.126;5.596;2023-10-13T02:20:29;18.20;99.90
17565;DHT22;62994;52.126;5.596;2023-10-13T02:22:59;18.20;99.90
17565;DHT22;62994;52.126;5.596;2023-10-13T02:25:28;18.20;99.90
17565;DHT22;62994;52.126;5.596;2023-10-13T02:28:03;18.20;99.90
17565;DHT22;62994;52.126;5.596;2023-10-13T02:30:43;18.20;99.90
17565;DHT22;62994;52.126;5.596;2023-10-13T02:33:11;18.10;99.90
17565;DHT22;62994;52.126;5.596;2023-10-13T02:35:41;18.10;99.90
17565;DHT22;62994;52.126;5.596;2023-10-13T02:38:09;18.10;99.90
17565;DHT22;62994;52.126;5.596;2023-10-13T02:40:50;18.20;99.90
17565;DHT22;62994;52.126;5.596;2023-10-13T02:43:20;18.10;99.90
17565;DHT22;62994;52.126;5.596;2023-10-13T02:45:59;18.10;99.90
17565;DHT22;62994;52.126;5.596;2023-10-13T02:48:28;18.20;99.90
17565;DHT22;62994;52.126;5.596;2023-10-13T02:51:08;18.20;99.90
17565;DHT22;62994;52.126;5.596;2023-10-13T02:53:42;18.20;99.90
17565;DHT22;62994;52.126;5.596;2023-10-13T02:56:14;18.20;99.90
17565;DHT22;62994;52.126;5.596;2023-10-13T02:58:49;18.10;99.90
17565;DHT22;62994;52.126;5.596;2023-10-13T03:01:24;18.10;99.90
17565;DHT22;62994;52.126;5.596;2023-10-13T03:03:54;18.20;99.90
17565;DHT22;62994;52.126;5.596;2023-10-13T03:06:26;18.10;99.90
17565;DHT22;62994;52.126;5.596;2023-10-13T03:09:02;18.20;99.90
17565;DHT22;62994;52.126;5.596;2023-10-13T03:11:45;18.40;99.90
17565;DHT22;62994;52.126;5.596;2023-10-13T03:14:16;18.40;99.90
17565;DHT22;62994;52.126;5.596;2023-10-13T03:16:52;18.30;99.90
17565;DHT22;62994;52.126;5.596;2023-10-13T03:19:19;18.30;99.90
17565;DHT22;62994;52.126;5.596;2023-10-13T03:21:48;18.30;99.90
17565;DHT22;62994;52.126;5.596;2023-10-13T03:24:22;18.20;99.90
17565;DHT22;62994;52.126;5.596;2023-10-13T03:27:00;18.20;99.90
17565;DHT22;62994;52.126;5.596;2023-10-13T03:29:35;18.20;99.90
17565;DHT22;62994;52.126;5.596;2023-10-13T03:32:08;18.20;99.90
17565;DHT22;62994;52.126;5.596;2023-10-13T03:34:40;18.20;99.90
17565;DHT22;62994;52.126;5.596;2023-10-13T03:37:20;18.20;99.90
17565;DHT22;62994;52.126;5.596;2023-10-13T03:40:03;18.20;99.90
17565;DHT22;62994;52.126;5.596;2023-10-13T03:42:43;18.20;99.90
17565;DHT22;62994;52.126;5.596;2023-10-13T03:45:28;18.20;99.90
17565;DHT22;62994;52.126;5.596;2023-10-13T03:48:05;18.20;99.90
17565;DHT22;62994;52.126;5.596;2023-10-13T03:50:37;18.20;99.90
17565;DHT22;62994;52.126;5.596;2023-10-13T03:53:13;18.20;99.90
17565;DHT22;62994;52.126;5.596;2023-10-13T03:55:41;18.10;99.90
17565;DHT22;62994;52.126;5.596;2023-10-13T03:58:15;18.20;99.90
17565;DHT22;62994;52.126;5.596;2023-10-13T04:00:46;18.20;99.90
17565;DHT22;62994;52.126;5.596;2023-10-13T04:03:16;18.20;99.90
17565;DHT22;62994;52.126;5.596;2023-10-13T04:06:01;18.20;99.90
17565;DHT22;62994;52.126;5.596;2023-10-13T04:08:41;18.20;99.90
17565;DHT22;62994;52.126;5.596;2023-10-13T04:11:36;18.20;99.90
17565;DHT22;62994;52.126;5.596;2023-10-13T04:14:42;18.10;99.90
17565;DHT22;62994;52.126;5.596;2023-10-13T04:17:29;18.10;99.90
17565;DHT22;62994;52.126;5.596;2023-10-13T04:20:08;18.10;99.90
17565;DHT22;62994;52.126;5.596;2023-10-13T04:23:00;18.10;99.90
17565;DHT22;62994;52.126;5.596;2023-10-13T04:25:51;18.10;99.90
17565;DHT22;62994;52.126;5.596;2023-10-13T04:28:32;18.00;99.90
17565;DHT22;62994;52.126;5.596;2023-10-13T04:31:20;18.00;99.90
17565;DHT22;62994;52.126;5.596;2023-10-13T04:34:19;18.00;99.90
17565;DHT22;62994;52.126;5.596;2023-10-13T04:36:54;18.00;99.90
17565;DHT22;62994;52.126;5.596;2023-10-13T04:39:46;18.00;99.90
17565;DHT22;62994;52.126;5.596;2023-10-13T04:42:22;18.00;99.90
17565;DHT22;62994;52.126;5.596;2023-10-13T04:45:06;18.00;99.90
17565;DHT22;62994;52.126;5.596;2023-10-13T04:48:11;18.10;99.90
17565;DHT22;62994;52.126;5.596;2023-10-13T04:51:04;18.10;99.90
17565;DHT22;62994;52.126;5.596;2023-10-13T04:53:48;18.10;99.90
17565;DHT22;62994;52.126;5.596;2023-10-13T04:56:37;18.00;99.90
17565;DHT22;62994;52.126;5.596;2023-10-13T04:59:24;18.10;99.90
17565;DHT22;62994;52.126;5.596;2023-10-13T05:02:22;18.10;99.90
17565;DHT22;62994;52.126;5.596;2023-10-13T05:05:14;18.00;99.90
17565;DHT22;62994;52.126;5.596;2023-10-13T05:07:59;18.00;99.90
17565;DHT22;62994;52.126;5.596;2023-10-13T05:10:46;18.00;99.90
17565;DHT22;62994;52.126;5.596;2023-10-13T05:13:35;18.00;99.90
17565;DHT22;62994;52.126;5.596;2023-10-13T05:16:22;17.90;99.90
17565;DHT22;62994;52.126;5.596;2023-10-13T05:19:06;17.90;99.90
17565;DHT22;62994;52.126;5.596;2023-10-13T05:21:54;17.90;99.90
17565;DHT22;62994;52.126;5.596;2023-10-13T05:24:40;18.00;99.90
17565;DHT22;62994;52.126;5.596;2023-10-13T05:27:48;18.00;99.90
17565;DHT22;62994;52.126;5.596;2023-10-13T05:30:33;18.00;99.90
17565;DHT22;62994;52.126;5.596;2023-10-13T05:37:11;18.10;99.90
17565;DHT22;62994;52.126;5.596;2023-10-13T05:40:04;18.00;99.90
17565;DHT22;62994;52.126;5.596;2023-10-13T05:42:50;18.10;99.90
17565;DHT22;62994;52.126;5.596;2023-10-13T05:45:43;18.10;99.90
17565;DHT22;62994;52.126;5.596;2023-10-13T05:48:24;18.10;99.90
17565;DHT22;62994;52.126;5.596;2023-10-13T05:51:10;18.10;99.90
17565;DHT22;62994;52.126;5.596;2023-10-13T05:54:03;18.10;99.90
17565;DHT22;62994;52.126;5.596;2023-10-13T05:56:49;18.10;99.90
17565;DHT22;62994;52.126;5.596;2023-10-13T05:59:37;18.10;99.90
17565;DHT22;62994;52.126;5.596;2023-10-13T06:02:23;18.10;99.90
17565;DHT22;62994;52.126;5.596;2023-10-13T06:05:12;18.10;99.90
17565;DHT22;62994;52.126;5.596;2023-10-13T06:08:02;18.10;99.90
17565;DHT22;62994;52.126;5.596;2023-10-13T06:11:02;18.20;99.90
17565;DHT22;62994;52.126;5.596;2023-10-13T06:13:50;18.20;99.90
17565;DHT22;62994;52.126;5.596;2023-10-13T06:16:35;18.20;99.90
17565;DHT22;62994;52.126;5.596;2023-10-13T06:19:21;18.20;99.90
17565;DHT22;62994;52.126;5.596;2023-10-13T06:22:13;18.20;99.90
17565;DHT22;62994;52.126;5.596;2023-10-13T06:28:38;18.30;99.90
17565;DHT22;62994;52.126;5.596;2023-10-13T06:31:10;18.40;99.90
17565;DHT22;62994;52.126;5.596;2023-10-13T06:33:47;18.40;99.90
17565;DHT22;62994;52.126;5.596;2023-10-13T06:36:17;18.40;99.90
17565;DHT22;62994;52.126;5.596;2023-10-13T06:38:44;18.40;99.90
17565;DHT22;62994;52.126;5.596;2023-10-13T06:41:20;18.40;99.90
17565;DHT22;62994;52.126;5.596;2023-10-13T06:44:00;18.40;99.90
17565;DHT22;62994;52.126;5.596;2023-10-13T06:46:38;18.40;99.90
17565;DHT22;62994;52.126;5.596;2023-10-13T06:51:50;18.50;99.90
17565;DHT22;62994;52.126;5.596;2023-10-13T06:54:26;18.50;99.90
17565;DHT22;62994;52.126;5.596;2023-10-13T06:56:55;18.50;99.90
17565;DHT22;62994;52.126;5.596;2023-10-13T06:59:25;18.50;99.90
17565;DHT22;62994;52.126;5.596;2023-10-13T07:02:04;18.50;99.90
17565;DHT22;62994;52.126;5.596;2023-10-13T07:04:34;18.50;99.90
17565;DHT22;62994;52.126;5.596;2023-10-13T07:07:06;18.50;99.90
17565;DHT22;62994;52.126;5.596;2023-10-13T07:09:38;18.50;99.90
17565;DHT22;62994;52.126;5.596;2023-10-13T07:12:21;18.50;99.90
17565;DHT22;62994;52.126;5.596;2023-10-13T07:15:07;18.60;99.90
17565;DHT22;62994;52.126;5.596;2023-10-13T07:17:45;18.60;99.90
17565;DHT22;62994;52.126;5.596;2023-10-13T07:20:25;18.60;99.90
17565;DHT22;62994;52.126;5.596;2023-10-13T07:22:59;18.60;99.90
17565;DHT22;62994;52.126;5.596;2023-10-13T07:25:36;18.60;99.90
17565;DHT22;62994;52.126;5.596;2023-10-13T07:28:12;18.60;99.90
17565;DHT22;62994;52.126;5.596;2023-10-13T07:30:43;18.60;99.90
17565;DHT22;62994;52.126;5.596;2023-10-13T07:33:15;18.60;99.90
17565;DHT22;62994;52.126;5.596;2023-10-13T07:35:45;18.60;99.90
17565;DHT22;62994;52.126;5.596;2023-10-13T07:38:20;18.70;99.90
17565;DHT22;62994;52.126;5.596;2023-10-13T07:40:53;18.60;99.90
17565;DHT22;62994;52.126;5.596;2023-10-13T07:43:38;18.60;99.90
17565;DHT22;62994;52.126;5.596;2023-10-13T07:46:08;18.60;99.90
17565;DHT22;62994;52.126;5.596;2023-10-13T07:48:36;18.60;99.90
17565;DHT22;62994;52.126;5.596;2023-10-13T07:51:05;18.70;99.90
17565;DHT22;62994;52.126;5.596;2023-10-13T07:53:37;18.70;99.90
17565;DHT22;62994;52.126;5.596;2023-10-13T07:56:11;18.70;99.90
17565;DHT22;62994;52.126;5.596;2023-10-13T07:58:48;18.70;99.90
17565;DHT22;62994;52.126;5.596;2023-10-13T08:01:19;18.70;99.90
17565;DHT22;62994;52.126;5.596;2023-10-13T08:03:53;18.80;99.90
17565;DHT22;62994;52.126;5.596;2023-10-13T08:06:38;18.80;99.90
17565;DHT22;62994;52.126;5.596;2023-10-13T08:09:09;18.90;99.90
17565;DHT22;62994;52.126;5.596;2023-10-13T08:11:54;18.80;99.90
17565;DHT22;62994;52.126;5.596;2023-10-13T08:14:24;18.90;99.90
17565;DHT22;62994;52.126;5.596;2023-10-13T08:17:16;18.90;99.90
17565;DHT22;62994;52.126;5.596;2023-10-13T08:20:00;18.90;99.90
17565;DHT22;62994;52.126;5.596;2023-10-13T08:22:37;18.90;99.90
17565;DHT22;62994;52.126;5.596;2023-10-13T08:25:24;18.90;99.90
17565;DHT22;62994;52.126;5.596;2023-10-13T08:28:12;19.00;99.90
17565;DHT22;62994;52.126;5.596;2023-10-13T08:31:02;19.00;99.90
17565;DHT22;62994;52.126;5.596;2023-10-13T08:33:43;19.00;99.90
17565;DHT22;62994;52.126;5.596;2023-10-13T08:36:12;19.00;99.90
17565;DHT22;62994;52.126;5.596;2023-10-13T08:38:55;19.10;99.90
17565;DHT22;62994;52.126;5.596;2023-10-13T08:41:25;19.10;99.90
17565;DHT22;62994;52.126;5.596;2023-10-13T08:44:00;19.10;99.90
17565;DHT22;62994;52.126;5.596;2023-10-13T08:46:35;19.30;99.90
17565;DHT22;62994;52.126;5.596;2023-10-13T08:49:32;19.30;99.90
17565;DHT22;62994;52.126;5.596;2023-10-13T08:52:12;19.30;99.90
17565;DHT22;62994;52.126;5.596;2023-10-13T08:55:01;19.30;99.90
17565;DHT22;62994;52.126;5.596;2023-10-13T08:58:12;19.40;99.90
17565;DHT22;62994;52.126;5.596;2023-10-13T09:00:49;19.40;99.90
17565;DHT22;62994;52.126;5.596;2023-10-13T09:03:40;19.40;99.90
17565;DHT22;62994;52.126;5.596;2023-10-13T09:06:13;19.40;99.90
17565;DHT22;62994;52.126;5.596;2023-10-13T09:08:48;19.50;99.90
17565;DHT22;62994;52.126;5.596;2023-10-13T09:11:34;19.50;99.90
17565;DHT22;62994;52.126;5.596;2023-10-13T09:14:18;19.50;99.90
17565;DHT22;62994;52.126;5.596;2023-10-13T09:17:12;19.50;99.90
17565;DHT22;62994;52.126;5.596;2023-10-13T09:20:04;19.60;99.90
17565;DHT22;62994;52.126;5.596;2023-10-13T09:22:49;19.60;99.90
17565;DHT22;62994;52.126;5.596;2023-10-13T09:25:22;19.60;99.90
17565;DHT22;62994;52.126;5.596;2023-10-13T09:27:54;19.60;99.90
17565;DHT22;62994;52.126;5.596;2023-10-13T09:30:31;19.70;99.90
17565;DHT22;62994;52.126;5.596;2023-10-13T09:33:04;19.70;99.90
17565;DHT22;62994;52.126;5.596;2023-10-13T09:35:34;19.70;99.90
17565;DHT22;62994;52.126;5.596;2023-10-13T09:38:06;19.80;99.90
17565;DHT22;62994;52.126;5.596;2023-10-13T09:40:38;19.70;99.90
17565;DHT22;62994;52.126;5.596;2023-10-13T09:43:12;19.70;99.90
17565;DHT22;62994;52.126;5.596;2023-10-13T09:46:10;19.70;99.90
17565;DHT22;62994;52.126;5.596;2023-10-13T09:48:46;19.80;99.90
17565;DHT22;62994;52.126;5.596;2023-10-13T09:51:34;19.80;99.90
17565;DHT22;62994;52.126;5.596;2023-10-13T09:54:08;19.80;99.90
17565;DHT22;62994;52.126;5.596;2023-10-13T09:56:42;19.80;99.90
17565;DHT22;62994;52.126;5.596;2023-10-13T09:59:21;19.80;99.90
17565;DHT22;62994;52.126;5.596;2023-10-13T10:01:53;19.80;99.90
17565;DHT22;62994;52.126;5.596;2023-10-13T10:04:27;19.90;99.90
17565;DHT22;62994;52.126;5.596;2023-10-13T10:07:23;19.80;99.90
17565;DHT22;62994;52.126;5.596;2023-10-13T10:10:01;19.90;99.90
17565;DHT22;62994;52.126;5.596;2023-10-13T10:12:52;19.90;99.90
17565;DHT22;62994;52.126;5.596;2023-10-13T10:15:27;19.80;99.90
17565;DHT22;62994;52.126;5.596;2023-10-13T10:18:00;19.90;99.90
17565;DHT22;62994;52.126;5.596;2023-10-13T10:20:36;19.90;99.90
17565;DHT22;62994;52.126;5.596;2023-10-13T10:30:10;20.00;99.90
17565;DHT22;62994;52.126;5.596;2023-10-13T10:32:39;20.00;99.90
17565;DHT22;62994;52.126;5.596;2023-10-13T10:35:08;20.00;99.90
17565;DHT22;62994;52.126;5.596;2023-10-13T10:37:43;20.00;99.90
17565;DHT22;62994;52.126;5.596;2023-10-13T10:40:17;20.10;99.90
17565;DHT22;62994;52.126;5.596;2023-10-13T10:43:02;20.10;99.90
17565;DHT22;62994;52.126;5.596;2023-10-13T10:45:38;20.10;99.90
17565;DHT22;62994;52.126;5.596;2023-10-13T10:48:13;20.20;99.90
17565;DHT22;62994;52.126;5.596;2023-10-13T10:50:44;20.10;99.90
17565;DHT22;62994;52.126;5.596;2023-10-13T10:53:14;20.20;99.90
17565;DHT22;62994;52.126;5.596;2023-10-13T10:55:43;20.20;99.90
17565;DHT22;62994;52.126;5.596;2023-10-13T10:58:12;20.30;99.90
17565;DHT22;62994;52.126;5.596;2023-10-13T11:01:09;20.30;99.90
17565;DHT22;62994;52.126;5.596;2023-10-13T11:04:07;20.40;99.90
17565;DHT22;62994;52.126;5.596;2023-10-13T11:06:45;20.60;99.90
17565;DHT22;62994;52.126;5.596;2023-10-13T11:09:15;20.70;99.90
17565;DHT22;62994;52.126;5.596;2023-10-13T11:12:15;20.80;99.90
17565;DHT22;62994;52.126;5.596;2023-10-13T11:15:05;20.80;99.90
17565;DHT22;62994;52.126;5.596;2023-10-13T11:17:48;20.90;99.90
17565;DHT22;62994;52.126;5.596;2023-10-13T11:20:26;21.00;99.90
17565;DHT22;62994;52.126;5.596;2023-10-13T11:23:16;21.00;99.90
17565;DHT22;62994;52.126;5.596;2023-10-13T11:26:04;21.00;99.90
17565;DHT22;62994;52.126;5.596;2023-10-13T11:28:42;21.10;99.90
17565;DHT22;62994;52.126;5.596;2023-10-13T11:31:19;21.00;99.90
17565;DHT22;62994;52.126;5.596;2023-10-13T11:33:52;20.90;99.90
17565;DHT22;62994;52.126;5.596;2023-10-13T11:36:35;21.00;99.90
17565;DHT22;62994;52.126;5.596;2023-10-13T11:39:33;20.90;99.90
17565;DHT22;62994;52.126;5.596;2023-10-13T11:42:21;21.00;99.90
17565;DHT22;62994;52.126;5.596;2023-10-13T11:45:02;20.90;99.90
17565;DHT22;62994;52.126;5.596;2023-10-13T11:47:49;20.90;99.90
17565;DHT22;62994;52.126;5.596;2023-10-13T11:50:25;20.90;99.90
17565;DHT22;62994;52.126;5.596;2023-10-13T11:52:59;20.90;99.90
17565;DHT22;62994;52.126;5.596;2023-10-13T11:55:26;21.00;99.90
17565;DHT22;62994;52.126;5.596;2023-10-13T11:57:53;21.00;99.90
17565;DHT22;62994;52.126;5.596;2023-10-13T12:00:24;21.00;99.90
17565;DHT22;62994;52.126;5.596;2023-10-13T12:03:12;21.10;99.90
17565;DHT22;62994;52.126;5.596;2023-10-13T12:05:58;21.00;99.90
17565;DHT22;62994;52.126;5.596;2023-10-13T12:08:39;21.10;99.90
17565;DHT22;62994;52.126;5.596;2023-10-13T12:11:15;21.00;99.90
17565;DHT22;62994;52.126;5.596;2023-10-13T12:13:55;21.00;99.90
17565;DHT22;62994;52.126;5.596;2023-10-13T12:16:22;21.10;99.90
17565;DHT22;62994;52.126;5.596;2023-10-13T12:19:00;21.10;99.90
17565;DHT22;62994;52.126;5.596;2023-10-13T12:21:28;21.10;99.90
17565;DHT22;62994;52.126;5.596;2023-10-13T12:23:55;21.10;99.90
17565;DHT22;62994;52.126;5.596;2023-10-13T12:26:22;21.10;99.90
17565;DHT22;62994;52.126;5.596;2023-10-13T12:28:58;21.10;99.90
17565;DHT22;62994;52.126;5.596;2023-10-13T12:31:32;21.10;99.90
17565;DHT22;62994;52.126;5.596;2023-10-13T12:34:04;21.20;99.90
17565;DHT22;62994;52.126;5.596;2023-10-13T12:36:41;21.20;99.90
17565;DHT22;62994;52.126;5.596;2023-10-13T12:39:18;21.20;99.90
17565;DHT22;62994;52.126;5.596;2023-10-13T12:42:03;21.20;99.90
17565;DHT22;62994;52.126;5.596;2023-10-13T12:44:47;21.20;99.90
17565;DHT22;62994;52.126;5.596;2023-10-13T12:47:32;21.30;99.90
17565;DHT22;62994;52.126;5.596;2023-10-13T12:50:16;21.30;99.90
17565;DHT22;62994;52.126;5.596;2023-10-13T12:53:01;21.30;99.90
17565;DHT22;62994;52.126;5.596;2023-10-13T12:55:28;21.30;99.90
17565;DHT22;62994;52.126;5.596;2023-10-13T12:57:55;21.20;99.90
17565;DHT22;62994;52.126;5.596;2023-10-13T13:00:22;21.20;99.90
17565;DHT22;62994;52.126;5.596;2023-10-13T13:02:59;21.20;99.90
17565;DHT22;62994;52.126;5.596;2023-10-13T13:05:26;21.20;99.90
17565;DHT22;62994;52.126;5.596;2023-10-13T13:07:56;21.20;99.90
17565;DHT22;62994;52.126;5.596;2023-10-13T13:10:25;21.20;99.90
17565;DHT22;62994;52.126;5.596;2023-10-13T13:13:04;21.20;99.90
17565;DHT22;62994;52.126;5.596;2023-10-13T13:15:31;21.20;99.90
17565;DHT22;62994;52.126;5.596;2023-10-13T13:17:58;21.30;99.90
17565;DHT22;62994;52.126;5.596;2023-10-13T13:20:36;21.30;99.90
17565;DHT22;62994;52.126;5.596;2023-10-13T13:23:05;21.20;99.90
17565;DHT22;62994;52.126;5.596;2023-10-13T13:25:33;21.20;99.90
17565;DHT22;62994;52.126;5.596;2023-10-13T13:28:08;21.20;99.90
17565;DHT22;62994;52.126;5.596;2023-10-13T13:30:36;21.20;99.90
17565;DHT22;62994;52.126;5.596;2023-10-13T13:33:03;21.20;99.90
17565;DHT22;62994;52.126;5.596;2023-10-13T13:35:36;21.20;99.90
17565;DHT22;62994;52.126;5.596;2023-10-13T13:38:03;21.10;99.90
17565;DHT22;62994;52.126;5.596;2023-10-13T13:40:38;21.10;99.90
17565;DHT22;62994;52.126;5.596;2023-10-13T13:43:05;21.00;99.90
17565;DHT22;62994;52.126;5.596;2023-10-13T13:45:33;21.00;99.90
17565;DHT22;62994;52.126;5.596;2023-10-13T13:48:00;21.00;99.90
17565;DHT22;62994;52.126;5.596;2023-10-13T13:50:35;20.90;99.90
17565;DHT22;62994;52.126;5.596;2023-10-13T13:53:06;20.90;99.90
17565;DHT22;62994;52.126;5.596;2023-10-13T13:55:35;20.80;99.90
17565;DHT22;62994;52.126;5.596;2023-10-13T13:58:06;20.80;99.90
17565;DHT22;62994;52.126;5.596;2023-10-13T14:00:36;20.70;99.90
17565;DHT22;62994;52.126;5.596;2023-10-13T14:03:05;20.70;99.90
17565;DHT22;62994;52.126;5.596;2023-10-13T14:05:40;20.70;99.90
17565;DHT22;62994;52.126;5.596;2023-10-13T14:08:07;20.60;99.90
17565;DHT22;62994;52.126;5.596;2023-10-13T14:10:37;20.60;99.90
17565;DHT22;62994;52.126;5.596;2023-10-13T14:13:34;20.50;99.90
17565;DHT22;62994;52.126;5.596;2023-10-13T14:16:13;20.40;99.90
17565;DHT22;62994;52.126;5.596;2023-10-13T14:18:44;20.40;99.90
17565;DHT22;62994;52.126;5.596;2023-10-13T14:21:11;20.40;99.90
17565;DHT22;62994;52.126;5.596;2023-10-13T14:23:43;20.40;99.90
17565;DHT22;62994;52.126;5.596;2023-10-13T14:26:12;20.40;99.90
17565;DHT22;62994;52.126;5.596;2023-10-13T14:28:41;20.30;99.90
17565;DHT22;62994;52.126;5.596;2023-10-13T14:31:18;20.30;99.90
17565;DHT22;62994;52.126;5.596;2023-10-13T14:33:46;20.30;99.90
17565;DHT22;62994;52.126;5.596;2023-10-13T14:36:13;20.20;99.90
17565;DHT22;62994;52.126;5.596;2023-10-13T14:38:46;20.20;99.90
17565;DHT22;62994;52.126;5.596;2023-10-13T14:41:15;20.10;99.90
17565;DHT22;62994;52.126;5.596;2023-10-13T14:43:45;20.10;99.90
17565;DHT22;62994;52.126;5.596;2023-10-13T14:46:14;20.00;99.90
17565;DHT22;62994;52.126;5.596;2023-10-13T14:48:42;20.00;99.90
17565;DHT22;62994;52.126;5.596;2023-10-13T14:51:10;19.90;99.90
17565;DHT22;62994;52.126;5.596;2023-10-13T14:53:39;19.90;99.90
17565;DHT22;62994;52.126;5.596;2023-10-13T14:56:10;19.90;99.90
17565;DHT22;62994;52.126;5.596;2023-10-13T14:58:37;19.90;99.90
17565;DHT22;62994;52.126;5.596;2023-10-13T15:01:16;19.80;99.90
17565;DHT22;62994;52.126;5.596;2023-10-13T15:03:46;19.90;99.90
17565;DHT22;62994;52.126;5.596;2023-10-13T15:06:17;19.80;99.90
17565;DHT22;62994;52.126;5.596;2023-10-13T15:08:46;19.90;99.90
17565;DHT22;62994;52.126;5.596;2023-10-13T15:11:14;19.90;99.90
17565;DHT22;62994;52.126;5.596;2023-10-13T15:13:45;19.90;99.90
17565;DHT22;62994;52.126;5.596;2023-10-13T15:16:16;19.80;99.90
17565;DHT22;62994;52.126;5.596;2023-10-13T15:18:44;19.80;99.90
17565;DHT22;62994;52.126;5.596;2023-10-13T15:21:15;19.80;99.90
17565;DHT22;62994;52.126;5.596;2023-10-13T15:23:45;19.80;99.90
17565;DHT22;62994;52.126;5.596;2023-10-13T15:26:12;19.80;99.90
17565;DHT22;62994;52.126;5.596;2023-10-13T15:28:40;19.80;99.90
17565;DHT22;62994;52.126;5.596;2023-10-13T15:31:20;19.80;99.90
17565;DHT22;62994;52.126;5.596;2023-10-13T15:33:52;19.80;99.90
17565;DHT22;62994;52.126;5.596;2023-10-13T15:36:21;19.80;99.90
17565;DHT22;62994;52.126;5.596;2023-10-13T15:38:53;19.80;99.90
17565;DHT22;62994;52.126;5.596;2023-10-13T15:41:22;19.80;99.90
17565;DHT22;62994;52.126;5.596;2023-10-13T15:43:49;19.80;99.90
17565;DHT22;62994;52.126;5.596;2023-10-13T15:46:18;19.70;99.90
17565;DHT22;62994;52.126;5.596;2023-10-13T15:48:48;19.70;99.90
17565;DHT22;62994;52.126;5.596;2023-10-13T15:51:15;19.70;99.90
17565;DHT22;62994;52.126;5.596;2023-10-13T15:53:43;19.70;99.90
17565;DHT22;62994;52.126;5.596;2023-10-13T15:56:13;19.80;99.90
17565;DHT22;62994;52.126;5.596;2023-10-13T15:58:40;19.70;99.90
17565;DHT22;62994;52.126;5.596;2023-10-13T16:01:09;19.70;99.90
17565;DHT22;62994;52.126;5.596;2023-10-13T16:03:38;19.70;99.90
17565;DHT22;62994;52.126;5.596;2023-10-13T16:06:14;19.70;99.90
17565;DHT22;62994;52.126;5.596;2023-10-13T16:08:40;19.80;99.90
17565;DHT22;62994;52.126;5.596;2023-10-13T16:11:09;19.70;99.90
17565;DHT22;62994;52.126;5.596;2023-10-13T16:13:39;19.70;99.90
17565;DHT22;62994;52.126;5.596;2023-10-13T16:16:06;19.70;99.90
17565;DHT22;62994;52.126;5.596;2023-10-13T16:18:40;19.70;99.90
17565;DHT22;62994;52.126;5.596;2023-10-13T16:21:09;19.70;99.90
17565;DHT22;62994;52.126;5.596;2023-10-13T16:23:39;19.70;99.90
17565;DHT22;62994;52.126;5.596;2023-10-13T16:26:06;19.60;99.90
17565;DHT22;62994;52.126;5.596;2023-10-13T16:28:39;19.70;99.90
17565;DHT22;62994;52.126;5.596;2023-10-13T16:31:07;19.70;99.90
17565;DHT22;62994;52.126;5.596;2023-10-13T16:33:34;19.70;99.90
17565;DHT22;62994;52.126;5.596;2023-10-13T16:36:02;19.70;99.90
17565;DHT22;62994;52.126;5.596;2023-10-13T16:38:31;19.70;99.90
17565;DHT22;62994;52.126;5.596;2023-10-13T16:40:59;19.80;99.90
17565;DHT22;62994;52.126;5.596;2023-10-13T16:43:27;19.80;99.90
17565;DHT22;62994;52.126;5.596;2023-10-13T16:45:54;19.70;99.90